createdAt,value
2022-08-09T00:01:05.495Z,2.30
2022-08-09T00:04:10.183Z,2.10
2022-08-09T00:06:24.274Z,2.33
2022-08-09T00:08:51.890Z,2.13
2022-08-09T00:11:24.839Z,2.40
2022-08-09T00:13:52.056Z,2.10
2022-08-09T00:16:26.558Z,1.90
2022-08-09T00:19:09.365Z,2.15
2022-08-09T00:21:38.516Z,2.20
2022-08-09T00:24:22.257Z,2.10
2022-08-09T00:26:51.147Z,2.00
2022-08-09T00:29:39.323Z,2.45
2022-08-09T00:32:05.383Z,2.00
2022-08-09T00:34:33.415Z,2.10
2022-08-09T00:37:00.237Z,2.38
2022-08-09T00:40:13.194Z,2.38
2022-08-09T00:44:13.075Z,2.35
2022-08-09T00:44:59.735Z,2.10
2022-08-09T00:47:33.097Z,2.30
2022-08-09T00:50:03.279Z,2.50
2022-08-09T00:52:31.122Z,2.17
2022-08-09T00:55:00.256Z,2.08
2022-08-09T00:57:34.434Z,2.45
2022-08-09T01:00:05.329Z,2.65
2022-08-09T01:03:10.210Z,2.20
2022-08-09T01:05:53.779Z,2.45
2022-08-09T01:08:34.826Z,2.50
2022-08-09T01:11:17.946Z,2.30
2022-08-09T01:14:00.202Z,2.33
2022-08-09T01:16:36.591Z,2.80
2022-08-09T01:19:40.023Z,2.35
2022-08-09T01:22:36.702Z,2.75
2022-08-09T01:25:37.509Z,2.47
2022-08-09T01:28:09.956Z,2.65
2022-08-09T01:30:51.525Z,2.65
2022-08-09T01:33:23.878Z,2.50
2022-08-09T01:35:57.675Z,2.60
2022-08-09T01:38:28.184Z,2.67
2022-08-09T01:41:05.566Z,2.90
2022-08-09T01:43:51.110Z,2.78
2022-08-09T01:46:26.772Z,2.58
2022-08-09T01:48:57.178Z,2.67
2022-08-09T01:51:32.188Z,2.80
2022-08-09T01:54:02.020Z,2.97
2022-08-09T01:56:29.751Z,3.35
2022-08-09T01:58:59.136Z,3.20
2022-08-09T02:01:57.722Z,2.70
2022-08-09T02:04:15.426Z,3.15
2022-08-09T02:07:02.968Z,4.00
2022-08-09T02:09:41.917Z,2.90
2022-08-09T02:12:13.416Z,3.28
2022-08-09T02:14:48.340Z,3.10
2022-08-09T02:18:01.445Z,3.10
2022-08-09T02:20:08.643Z,3.60
2022-08-09T02:22:38.615Z,3.20
2022-08-09T02:25:15.293Z,3.72
2022-08-09T02:28:00.686Z,3.22
2022-08-09T02:30:37.584Z,3.53
2022-08-09T02:33:08.020Z,3.15
2022-08-09T02:36:02.838Z,3.20
2022-08-09T02:38:34.947Z,3.30
2022-08-09T02:41:09.447Z,3.50
2022-08-09T02:43:47.801Z,3.35
2022-08-09T02:46:27.612Z,3.42
2022-08-09T02:48:56.655Z,3.65
2022-08-09T02:51:26.403Z,3.35
2022-08-09T02:54:01.472Z,3.65
2022-08-09T02:56:30.520Z,3.03
2022-08-09T02:58:59.248Z,3.40
2022-08-09T03:01:42.495Z,3.80
2022-08-09T03:04:19.631Z,3.70
2022-08-09T03:06:48.915Z,3.50
2022-08-09T03:09:17.925Z,3.40
2022-08-09T03:12:09.811Z,3.85
2022-08-09T03:14:32.965Z,3.40
2022-08-09T03:17:01.816Z,3.60
2022-08-09T03:19:52.749Z,3.60
2022-08-09T03:22:25.724Z,3.47
2022-08-09T03:25:05.606Z,3.50
2022-08-09T03:27:50.673Z,3.78
2022-08-09T03:30:29.980Z,3.78
2022-08-09T03:33:17.645Z,3.97
2022-08-09T03:36:12.491Z,3.30
2022-08-09T03:38:42.893Z,3.70
2022-08-09T03:41:15.449Z,3.70
2022-08-09T03:43:43.400Z,3.65
2022-08-09T03:46:29.779Z,4.10
2022-08-09T03:48:59.039Z,3.90
2022-08-09T03:51:54.167Z,4.10
2022-08-09T03:54:19.348Z,3.88
2022-08-09T03:56:57.994Z,3.63
2022-08-09T03:59:27.247Z,4.07
2022-08-09T04:01:56.522Z,4.55
2022-08-09T04:04:36.238Z,4.15
2022-08-09T04:07:05.665Z,4.18
2022-08-09T04:09:47.389Z,4.32
2022-08-09T04:12:30.717Z,4.70
2022-08-09T04:15:01.153Z,4.90
2022-08-09T04:17:29.422Z,4.47
2022-08-09T04:19:56.628Z,4.35
2022-08-09T04:22:23.647Z,4.97
2022-08-09T04:24:50.217Z,5.10
2022-08-09T04:27:17.202Z,4.93
2022-08-09T04:29:50.321Z,5.13
2022-08-09T04:32:31.377Z,4.93
2022-08-09T04:35:01.250Z,4.82
2022-08-09T04:37:45.081Z,5.25
2022-08-09T04:40:28.562Z,4.80
2022-08-09T04:43:00.819Z,4.88
2022-08-09T04:45:30.354Z,4.90
2022-08-09T04:48:03.161Z,4.75
2022-08-09T04:50:34.870Z,5.90
2022-08-09T04:53:11.548Z,5.28
2022-08-09T04:55:58.698Z,5.03
2022-08-09T04:58:27.779Z,4.88
2022-08-09T05:00:55.558Z,4.78
2022-08-09T05:03:43.146Z,4.97
2022-08-09T05:06:22.147Z,4.68
2022-08-09T05:08:59.967Z,5.30
2022-08-09T05:11:32.112Z,4.90
2022-08-09T05:14:01.908Z,5.18
2022-08-09T05:16:32.909Z,4.70
2022-08-09T05:19:00.398Z,6.22
2022-08-09T05:21:30.095Z,5.28
2022-08-09T05:24:03.962Z,5.13
2022-08-09T05:26:36.936Z,4.97
2022-08-09T05:29:17.788Z,5.60
2022-08-09T05:31:56.622Z,4.97
2022-08-09T05:34:29.982Z,4.95
2022-08-09T05:36:58.681Z,5.55
2022-08-09T05:39:30.034Z,5.40
2022-08-09T05:42:05.998Z,5.80
2022-08-09T05:44:34.987Z,5.93
2022-08-09T05:47:05.664Z,5.22
2022-08-09T05:50:23.785Z,5.20
2022-08-09T05:52:20.395Z,5.30
2022-08-09T05:54:49.183Z,5.63
2022-08-09T05:57:17.551Z,5.75
2022-08-09T05:59:45.800Z,5.63
2022-08-09T06:02:12.270Z,5.55
2022-08-09T06:04:44.573Z,5.72
2022-08-09T06:07:21.644Z,5.65
2022-08-09T06:10:01.957Z,5.57
2022-08-09T06:12:29.411Z,6.37
2022-08-09T06:15:00.957Z,5.75
2022-08-09T06:17:40.127Z,6.00
2022-08-09T06:20:08.286Z,5.78
2022-08-09T06:22:35.558Z,6.00
2022-08-09T06:25:02.841Z,5.55
2022-08-09T06:27:42.136Z,4.93
2022-08-09T06:30:10.953Z,6.20
2022-08-09T06:32:59.558Z,5.30
2022-08-09T06:35:55.824Z,5.22
2022-08-09T06:38:15.892Z,5.47
2022-08-09T06:40:43.074Z,5.60
2022-08-09T06:43:12.444Z,5.15
2022-08-09T06:46:05.040Z,5.70
2022-08-09T06:48:26.172Z,4.80
2022-08-09T06:50:58.484Z,5.32
2022-08-09T06:53:25.161Z,5.50
2022-08-09T06:55:52.118Z,5.25
2022-08-09T06:58:40.907Z,5.15
2022-08-09T07:01:05.403Z,5.13
2022-08-09T07:03:39.754Z,4.95
2022-08-09T07:06:19.732Z,4.43
2022-08-09T07:08:46.603Z,4.75
2022-08-09T07:11:23.624Z,4.30
2022-08-09T07:14:05.644Z,4.18
2022-08-09T07:16:43.512Z,4.40
2022-08-09T07:19:18.646Z,4.15
2022-08-09T07:21:57.345Z,4.50
2022-08-09T07:24:32.425Z,4.53
2022-08-09T07:27:10.790Z,3.83
2022-08-09T07:29:57.024Z,4.18
2022-08-09T07:32:33.009Z,3.60
2022-08-09T07:35:10.476Z,3.42
2022-08-09T07:37:46.237Z,3.38
2022-08-09T07:40:20.530Z,3.75
2022-08-09T07:42:59.703Z,3.67
2022-08-09T07:45:37.675Z,3.17
2022-08-09T07:48:28.342Z,3.53
2022-08-09T07:51:10.190Z,2.58
2022-08-09T07:54:07.219Z,2.42
2022-08-09T07:56:38.995Z,3.72
2022-08-09T07:59:33.940Z,2.80
2022-08-09T08:02:03.256Z,2.60
2022-08-09T08:04:33.017Z,2.65
2022-08-09T08:07:09.624Z,3.30
2022-08-09T08:10:08.027Z,2.63
2022-08-09T08:12:37.506Z,2.50
2022-08-09T08:15:13.882Z,2.28
2022-08-09T08:17:53.395Z,2.00
2022-08-09T08:20:29.111Z,2.28
2022-08-09T08:23:03.419Z,2.10
2022-08-09T08:25:44.295Z,2.00
2022-08-09T08:28:14.297Z,1.77
2022-08-09T08:30:41.753Z,2.00
2022-08-09T08:33:11.766Z,1.77
2022-08-09T08:35:58.997Z,1.88
2022-08-09T08:38:28.256Z,1.83
2022-08-09T08:40:55.944Z,1.45
2022-08-09T08:43:23.774Z,1.77
2022-08-09T08:46:00.149Z,1.42
2022-08-09T08:48:36.632Z,1.63
2022-08-09T08:51:04.100Z,1.77
2022-08-09T08:53:36.956Z,1.75
2022-08-09T08:56:04.728Z,1.75
2022-08-09T08:58:33.109Z,1.95
2022-08-09T09:01:09.168Z,1.60
2022-08-09T09:03:50.439Z,1.60
2022-08-09T09:06:18.521Z,1.30
2022-08-09T09:08:52.444Z,1.40
2022-08-09T09:11:20.325Z,1.42
2022-08-09T09:13:56.370Z,1.48
2022-08-09T09:16:34.455Z,1.98
2022-08-09T09:19:36.508Z,1.25
2022-08-09T09:22:11.789Z,1.70
2022-08-09T09:24:52.227Z,1.60
2022-08-09T09:28:05.507Z,1.17
2022-08-09T09:30:28.880Z,1.30
2022-08-09T09:33:15.829Z,0.90
2022-08-09T09:36:02.489Z,1.20
2022-08-09T09:38:39.850Z,1.10
2022-08-09T09:41:07.265Z,0.95
2022-08-09T09:43:41.423Z,1.00
2022-08-09T09:46:52.273Z,1.05
2022-08-09T09:49:56.406Z,1.25
2022-08-09T09:52:16.291Z,1.30
2022-08-09T09:55:16.435Z,1.15
2022-08-09T09:58:18.884Z,1.00
2022-08-09T10:00:59.210Z,1.00
2022-08-09T10:04:01.486Z,1.02
2022-08-09T10:06:43.470Z,0.80
2022-08-09T10:09:22.349Z,0.88
2022-08-09T10:12:12.485Z,0.90
2022-08-09T10:14:48.528Z,0.98
2022-08-09T10:17:50.895Z,1.00
2022-08-09T10:20:32.942Z,0.70
2022-08-09T10:23:21.181Z,0.70
2022-08-09T10:26:04.430Z,0.80
2022-08-09T10:28:36.097Z,0.80
2022-08-09T10:34:09.063Z,0.90
2022-08-09T10:36:37.566Z,0.80
2022-08-09T10:39:13.921Z,0.77
2022-08-09T10:41:42.736Z,1.00
2022-08-09T10:44:10.385Z,0.82
2022-08-09T10:47:00.951Z,0.95
2022-08-09T10:52:38.096Z,0.70
2022-08-09T10:55:54.913Z,0.60
2022-08-09T10:58:30.894Z,1.10
2022-08-09T11:03:06.752Z,0.70
2022-08-09T11:04:19.845Z,0.68
2022-08-09T11:06:57.716Z,0.90
2022-08-09T11:09:38.288Z,0.60
2022-08-09T11:12:30.414Z,0.82
2022-08-09T11:15:24.088Z,0.88
2022-08-09T11:18:02.780Z,0.75
2022-08-09T11:20:44.333Z,0.80
2022-08-09T11:23:11.702Z,0.83
2022-08-09T11:25:47.359Z,0.70
2022-08-09T11:28:38.781Z,0.55
2022-08-09T11:31:48.731Z,0.75
2022-08-09T11:34:42.798Z,0.75
2022-08-09T11:37:17.960Z,0.80
2022-08-09T11:40:05.833Z,0.70
2022-08-09T11:42:42.068Z,0.80
2022-08-09T11:45:20.581Z,0.88
2022-08-09T11:47:52.589Z,1.30
2022-08-09T11:50:55.163Z,0.90
2022-08-09T11:53:28.120Z,1.00
2022-08-09T11:56:02.515Z,0.80
2022-08-09T11:58:32.953Z,0.68
2022-08-09T12:01:15.719Z,1.02
2022-08-09T12:04:03.115Z,0.70
2022-08-09T12:06:35.060Z,0.85
2022-08-09T12:09:17.548Z,0.52
2022-08-09T12:12:03.164Z,0.77
2022-08-09T12:14:40.696Z,0.70
2022-08-09T12:17:34.644Z,1.10
2022-08-09T12:20:27.494Z,0.50
2022-08-09T12:23:47.549Z,0.80
2022-08-09T12:26:26.095Z,0.80
2022-08-09T12:29:11.817Z,0.77
2022-08-09T12:32:02.161Z,0.80
2022-08-09T12:34:41.161Z,0.80
2022-08-09T12:37:24.173Z,0.65
2022-08-09T12:40:01.082Z,0.60
2022-08-09T12:42:28.092Z,0.63
2022-08-09T12:44:57.088Z,0.80
2022-08-09T12:47:26.667Z,0.73
2022-08-09T12:50:11.886Z,0.80
2022-08-09T12:53:07.869Z,0.70
2022-08-09T12:56:14.581Z,0.82
2022-08-09T12:58:24.215Z,0.70
2022-08-09T13:00:54.077Z,0.75
2022-08-09T13:03:53.579Z,0.70
2022-08-09T13:06:39.817Z,0.80
2022-08-09T13:09:15.911Z,0.90
2022-08-09T13:11:45.627Z,0.85
2022-08-09T13:14:42.041Z,0.55
2022-08-09T13:17:13.437Z,0.80
2022-08-09T13:20:08.285Z,0.70
2022-08-09T13:25:20.038Z,0.60
2022-08-09T13:27:54.823Z,0.98
2022-08-09T13:31:10.865Z,0.45
2022-08-09T13:33:17.259Z,0.40
2022-08-09T13:36:38.769Z,0.50
2022-08-09T13:38:57.588Z,1.05
2022-08-09T13:41:58.353Z,0.60
2022-08-09T13:44:16.459Z,0.85
2022-08-09T13:47:27.066Z,0.70
2022-08-09T13:49:33.994Z,0.60
2022-08-09T13:52:09.055Z,0.70
2022-08-09T13:54:36.315Z,0.60
2022-08-09T13:57:09.824Z,0.50
2022-08-09T13:59:58.230Z,0.68
2022-08-09T14:02:26.160Z,0.65
2022-08-09T14:04:59.783Z,0.70
2022-08-09T14:07:26.728Z,0.70
2022-08-09T14:10:17.421Z,0.80
2022-08-09T14:12:56.200Z,0.70
2022-08-09T14:16:10.172Z,0.70
2022-08-09T14:18:19.733Z,0.50
2022-08-09T14:20:48.770Z,0.70
2022-08-09T14:23:20.351Z,0.70
2022-08-09T14:26:05.928Z,0.98
2022-08-09T14:28:33.105Z,0.88
2022-08-09T14:30:59.510Z,0.98
2022-08-09T14:33:25.876Z,0.90
2022-08-09T14:35:53.548Z,0.80
2022-08-09T14:38:19.970Z,0.98
2022-08-09T14:41:02.177Z,0.85
2022-08-09T14:43:47.218Z,1.00
2022-08-09T14:46:57.963Z,0.95
2022-08-09T14:49:06.091Z,0.90
2022-08-09T14:51:42.490Z,1.10
2022-08-09T14:54:09.495Z,1.60
2022-08-09T14:56:36.376Z,1.00
2022-08-09T14:59:23.379Z,1.20
2022-08-09T15:01:50.314Z,1.05
2022-08-09T15:04:16.706Z,1.20
2022-08-09T15:06:43.149Z,1.00
2022-08-09T15:09:16.702Z,1.00
2022-08-09T15:12:04.402Z,1.20
2022-08-09T15:14:33.753Z,0.90
2022-08-09T15:17:00.788Z,0.95
2022-08-09T15:19:36.227Z,0.80
2022-08-09T15:22:03.195Z,1.20
2022-08-09T15:24:29.910Z,1.10
2022-08-09T15:26:56.691Z,1.10
2022-08-09T15:30:48.739Z,1.10
2022-08-09T15:32:29.924Z,1.00
2022-08-09T15:35:00.948Z,1.00
2022-08-09T15:37:36.920Z,1.20
2022-08-09T15:40:11.828Z,1.10
2022-08-09T15:42:39.804Z,1.10
2022-08-09T15:45:11.248Z,1.00
2022-08-09T15:47:52.956Z,1.20
2022-08-09T15:50:29.254Z,1.00
2022-08-09T15:53:06.002Z,1.02
2022-08-09T15:55:34.476Z,0.93
2022-08-09T15:58:20.025Z,1.10
2022-08-09T16:00:53.700Z,0.88
2022-08-09T16:03:29.327Z,0.80
2022-08-09T16:06:05.820Z,0.75
2022-08-09T16:08:33.247Z,0.82
2022-08-09T16:11:01.967Z,0.93
2022-08-09T16:14:03.251Z,0.60
2022-08-09T16:16:17.186Z,0.73
2022-08-09T16:18:45.047Z,0.93
2022-08-09T16:21:16.935Z,0.70
2022-08-09T16:23:54.862Z,0.60
2022-08-09T16:26:35.602Z,0.50
2022-08-09T16:29:10.487Z,0.73
2022-08-09T16:32:19.940Z,0.45
2022-08-09T16:34:26.779Z,0.80
2022-08-09T16:36:56.094Z,0.50
2022-08-09T16:39:25.797Z,0.57
2022-08-09T16:42:02.650Z,0.50
2022-08-09T16:44:32.166Z,0.60
2022-08-09T16:47:04.031Z,0.40
2022-08-09T16:50:31.646Z,0.60
2022-08-09T16:52:34.806Z,0.40
2022-08-09T16:55:01.568Z,0.63
2022-08-09T16:58:08.113Z,0.50
2022-08-09T17:00:14.976Z,0.52
2022-08-09T17:02:42.685Z,0.40
2022-08-09T17:05:13.964Z,0.50
2022-08-09T17:08:45.728Z,0.50
2022-08-09T17:10:33.392Z,0.70
2022-08-09T17:13:00.912Z,0.50
2022-08-09T17:15:30.954Z,0.47
2022-08-09T17:18:15.238Z,0.68
2022-08-09T17:20:48.026Z,0.70
2022-08-09T17:23:20.279Z,0.70
2022-08-09T17:25:53.019Z,0.60
2022-08-09T17:28:19.946Z,0.60
2022-08-09T17:30:48.002Z,0.60
2022-08-09T17:33:22.549Z,0.60
2022-08-09T17:35:49.996Z,0.65
2022-08-09T17:38:32.522Z,0.95
2022-08-09T17:41:03.366Z,0.60
2022-08-09T17:43:34.589Z,0.50
2022-08-09T17:46:07.077Z,0.50
2022-08-09T17:48:38.665Z,0.70
2022-08-09T17:51:18.544Z,1.05
2022-08-09T17:53:53.657Z,0.47
2022-08-09T17:56:29.240Z,0.50
2022-08-09T17:59:08.837Z,0.50
2022-08-09T18:02:03.475Z,0.70
2022-08-09T18:04:22.768Z,1.00
2022-08-09T18:06:54.435Z,0.47
2022-08-09T18:09:23.107Z,0.65
2022-08-09T18:12:05.174Z,0.45
2022-08-09T18:14:36.460Z,0.80
2022-08-09T18:17:18.963Z,0.50
2022-08-09T18:21:00.240Z,0.57
2022-08-09T18:22:51.129Z,0.50
2022-08-09T18:25:17.884Z,0.70
2022-08-09T18:28:03.074Z,0.60
2022-08-09T18:30:38.041Z,0.60
2022-08-09T18:33:15.198Z,0.73
2022-08-09T18:35:59.333Z,0.75
2022-08-09T18:38:26.964Z,0.50
2022-08-09T18:40:55.231Z,0.40
2022-08-09T18:43:22.597Z,0.60
2022-08-09T18:46:48.423Z,0.73
2022-08-09T18:48:36.436Z,0.52
2022-08-09T18:51:02.952Z,0.80
2022-08-09T18:54:00.727Z,0.57
2022-08-09T18:56:20.128Z,0.50
2022-08-09T18:58:55.506Z,0.40
2022-08-09T19:01:22.123Z,0.43
2022-08-09T19:04:01.076Z,0.70
2022-08-09T19:06:33.111Z,0.80
2022-08-09T19:09:03.245Z,0.60
2022-08-09T19:11:35.342Z,0.50
2022-08-09T19:14:06.104Z,0.57
2022-08-09T19:16:36.274Z,0.70
2022-08-09T19:19:23.566Z,0.70
2022-08-09T19:22:04.603Z,0.70
2022-08-09T19:24:38.322Z,0.40
2022-08-09T19:27:16.019Z,0.50
2022-08-09T19:30:23.829Z,0.73
2022-08-09T19:32:30.887Z,0.70
2022-08-09T19:34:58.306Z,0.47
2022-08-09T19:37:24.993Z,0.63
2022-08-09T19:40:03.759Z,0.75
2022-08-09T19:42:31.905Z,0.90
2022-08-09T19:44:58.415Z,0.70
2022-08-09T19:47:27.124Z,0.70
2022-08-09T19:50:08.234Z,0.80
2022-08-09T19:52:49.328Z,0.80
2022-08-09T19:55:19.434Z,0.70
2022-08-09T19:57:46.084Z,0.88
2022-08-09T20:00:13.302Z,0.80
2022-08-09T20:04:08.389Z,0.70
2022-08-09T20:05:27.295Z,0.65
2022-08-09T20:07:58.696Z,0.90
2022-08-09T20:10:27.995Z,0.90
2022-08-09T20:13:02.303Z,0.88
2022-08-09T20:16:37.518Z,0.90
2022-08-09T20:18:17.905Z,1.10
2022-08-09T20:20:46.464Z,1.02
2022-08-09T20:23:13.360Z,0.90
2022-08-09T20:25:51.781Z,0.85
2022-08-09T20:28:34.378Z,1.00
2022-08-09T20:33:39.082Z,0.93
2022-08-09T20:36:10.662Z,0.98
2022-08-09T20:41:32.002Z,1.27
2022-08-09T20:44:02.190Z,1.00
2022-08-09T20:46:42.014Z,1.00
2022-08-09T20:49:10.363Z,0.82
2022-08-09T20:51:40.920Z,0.80
2022-08-09T20:54:16.660Z,0.93
2022-08-09T20:56:46.773Z,0.70
2022-08-09T20:59:14.055Z,0.80
2022-08-09T21:01:50.327Z,1.00
2022-08-09T21:05:50.979Z,0.80
2022-08-09T21:07:11.918Z,0.80
2022-08-09T21:09:56.998Z,0.90
2022-08-09T21:15:17.133Z,0.95
2022-08-09T21:18:29.855Z,0.90
2022-08-09T21:20:32.089Z,0.85
2022-08-09T21:23:00.418Z,1.00
2022-08-09T21:25:56.298Z,0.85
2022-08-09T21:28:34.453Z,0.90
2022-08-09T21:31:16.163Z,1.00
2022-08-09T21:33:46.162Z,0.98
2022-08-09T21:36:18.050Z,1.00
2022-08-09T21:38:45.446Z,0.77
2022-08-09T21:41:17.587Z,1.10
2022-08-09T21:43:57.178Z,1.00
2022-08-09T21:46:24.814Z,0.85
2022-08-09T21:48:52.310Z,0.70
2022-08-09T21:51:24.577Z,0.82
2022-08-09T21:54:03.011Z,0.80
2022-08-09T21:56:42.052Z,0.73
2022-08-09T21:59:10.965Z,0.90
2022-08-09T22:01:58.681Z,0.90
2022-08-09T22:04:33.580Z,0.90
2022-08-09T22:07:14.352Z,0.77
2022-08-09T22:10:00.075Z,0.70
2022-08-09T22:12:34.854Z,0.70
2022-08-09T22:15:01.449Z,0.70
2022-08-09T22:17:27.995Z,0.77
2022-08-09T22:20:00.605Z,1.00
2022-08-09T22:22:29.587Z,0.77
2022-08-09T22:26:07.259Z,0.73
2022-08-09T22:27:42.399Z,0.73
2022-08-09T22:30:09.474Z,0.80
2022-08-09T22:32:35.978Z,0.65
2022-08-09T22:35:06.606Z,0.70
2022-08-09T22:38:06.821Z,0.90
2022-08-09T22:40:34.832Z,0.70
2022-08-09T22:43:01.275Z,0.90
2022-08-09T22:48:15.518Z,1.00
2022-08-09T22:48:36.039Z,0.82
2022-08-09T22:51:10.837Z,0.80
2022-08-09T22:54:02.106Z,1.10
2022-08-09T22:56:33.755Z,0.90
2022-08-09T22:59:06.082Z,0.85
2022-08-09T23:01:49.946Z,0.90
2022-08-09T23:04:16.433Z,0.73
2022-08-09T23:07:02.826Z,0.73
2022-08-09T23:09:29.335Z,0.68
2022-08-09T23:11:55.700Z,0.60
2022-08-09T23:14:37.275Z,0.70
2022-08-09T23:17:08.123Z,0.88
2022-08-09T23:20:06.209Z,0.90
2022-08-09T23:22:23.542Z,0.73
2022-08-09T23:24:50.020Z,0.90
2022-08-09T23:27:16.394Z,0.80
2022-08-09T23:29:42.890Z,1.00
2022-08-09T23:32:09.367Z,0.98
2022-08-09T23:34:36.692Z,0.90
2022-08-09T23:37:04.224Z,0.90
2022-08-09T23:39:30.798Z,0.70
2022-08-09T23:41:57.248Z,0.80
2022-08-09T23:44:23.616Z,0.80
2022-08-09T23:46:52.835Z,1.20
2022-08-09T23:49:25.243Z,1.00
2022-08-09T23:51:52.974Z,0.90
2022-08-09T23:54:19.964Z,1.10
2022-08-09T23:56:54.088Z,1.08
2022-08-09T23:59:24.278Z,0.90
